createdAt,value
2022-08-09T00:00:23.415Z,83.72
2022-08-09T00:04:00.082Z,83.87
2022-08-09T00:06:17.347Z,83.51
2022-08-09T00:08:43.340Z,83.70
2022-08-09T00:11:24.828Z,83.62
2022-08-09T00:13:53.183Z,83.42
2022-08-09T00:16:26.398Z,83.19
2022-08-09T00:19:09.467Z,83.40
2022-08-09T00:21:55.639Z,83.21
2022-08-09T00:24:27.537Z,83.34
2022-08-09T00:26:57.479Z,83.40
2022-08-09T00:29:39.146Z,83.43
2022-08-09T00:32:35.930Z,83.72
2022-08-09T00:35:04.086Z,83.27
2022-08-09T00:37:32.701Z,83.21
2022-08-09T00:40:12.956Z,83.19
2022-08-09T00:44:19.481Z,83.04
2022-08-09T00:45:34.749Z,83.15
2022-08-09T00:48:04.688Z,83.32
2022-08-09T00:50:34.110Z,83.15
2022-08-09T00:53:10.300Z,83.25
2022-08-09T00:56:04.880Z,82.96
2022-08-09T00:58:27.927Z,83.31
2022-08-09T01:00:58.993Z,83.04
2022-08-09T01:03:48.588Z,82.87
2022-08-09T01:06:18.432Z,83.08
2022-08-09T01:09:06.213Z,82.95
2022-08-09T01:11:59.180Z,83.05
2022-08-09T01:14:29.997Z,83.02
2022-08-09T01:17:04.515Z,83.41
2022-08-09T01:19:39.976Z,83.06
2022-08-09T01:22:44.801Z,82.76
2022-08-09T01:25:22.204Z,82.83
2022-08-09T01:27:52.515Z,82.93
2022-08-09T01:30:28.480Z,82.52
2022-08-09T01:33:09.976Z,82.51
2022-08-09T01:35:45.348Z,82.23
2022-08-09T01:38:15.919Z,82.03
2022-08-09T01:41:04.797Z,82.30
2022-08-09T01:43:42.077Z,82.21
2022-08-09T01:46:24.553Z,82.46
2022-08-09T01:49:10.759Z,82.23
2022-08-09T01:51:44.588Z,81.75
2022-08-09T01:54:28.172Z,82.20
2022-08-09T01:57:08.960Z,82.32
2022-08-09T01:59:40.858Z,82.57
2022-08-09T02:02:21.714Z,82.73
2022-08-09T02:04:50.067Z,82.80
2022-08-09T02:08:39.345Z,82.80
2022-08-09T02:10:29.950Z,83.13
2022-08-09T02:13:05.721Z,83.36
2022-08-09T02:15:49.428Z,83.74
2022-08-09T02:18:21.276Z,83.78
2022-08-09T02:20:52.794Z,83.72
2022-08-09T02:23:23.150Z,83.71
2022-08-09T02:25:55.929Z,83.65
2022-08-09T02:28:31.254Z,83.50
2022-08-09T02:31:02.722Z,83.55
2022-08-09T02:33:37.934Z,83.04
2022-08-09T02:36:29.988Z,82.65
2022-08-09T02:39:01.127Z,82.65
2022-08-09T02:41:43.626Z,82.26
2022-08-09T02:44:29.429Z,82.38
2022-08-09T02:47:02.315Z,83.10
2022-08-09T02:49:41.451Z,83.19
2022-08-09T02:52:13.212Z,83.30
2022-08-09T02:54:54.650Z,83.37
2022-08-09T02:57:26.797Z,83.28
2022-08-09T03:00:26.126Z,83.34
2022-08-09T03:03:00.078Z,83.90
2022-08-09T03:05:29.813Z,84.03
2022-08-09T03:08:04.895Z,84.16
2022-08-09T03:10:35.666Z,84.33
2022-08-09T03:13:08.650Z,84.11
2022-08-09T03:15:40.629Z,84.77
2022-08-09T03:18:31.083Z,84.76
2022-08-09T03:21:00.198Z,84.44
2022-08-09T03:23:28.993Z,84.24
2022-08-09T03:26:03.651Z,84.30
2022-08-09T03:28:34.416Z,84.35
2022-08-09T03:31:09.866Z,84.61
2022-08-09T03:33:53.961Z,84.68
2022-08-09T03:36:26.966Z,84.37
2022-08-09T03:38:56.799Z,84.20
2022-08-09T03:41:30.325Z,84.81
2022-08-09T03:44:13.301Z,84.98
2022-08-09T03:46:44.215Z,84.97
2022-08-09T03:49:12.700Z,85.25
2022-08-09T03:51:58.507Z,85.35
2022-08-09T03:54:32.386Z,85.49
2022-08-09T03:57:04.105Z,85.81
2022-08-09T03:59:52.885Z,85.62
2022-08-09T04:02:26.568Z,86.22
2022-08-09T04:04:56.802Z,86.38
2022-08-09T04:07:33.926Z,86.29
2022-08-09T04:10:18.223Z,86.26
2022-08-09T04:12:52.583Z,86.45
2022-08-09T04:15:42.698Z,86.46
2022-08-09T04:18:16.557Z,86.21
2022-08-09T04:20:49.460Z,86.27
2022-08-09T04:23:17.816Z,86.20
2022-08-09T04:25:52.456Z,86.07
2022-08-09T04:28:33.688Z,85.68
2022-08-09T04:31:09.243Z,85.79
2022-08-09T04:33:51.777Z,85.40
2022-08-09T04:36:30.151Z,84.69
2022-08-09T04:39:02.712Z,84.30
2022-08-09T04:41:33.811Z,85.26
2022-08-09T04:44:14.527Z,84.61
2022-08-09T04:46:58.314Z,84.71
2022-08-09T04:49:52.295Z,84.21
2022-08-09T04:52:26.432Z,84.24
2022-08-09T04:54:59.652Z,84.23
2022-08-09T04:57:53.882Z,84.49
2022-08-09T05:00:16.640Z,84.80
2022-08-09T05:02:51.833Z,85.10
2022-08-09T05:05:31.329Z,85.33
2022-08-09T05:08:00.784Z,85.01
2022-08-09T05:10:28.824Z,85.49
2022-08-09T05:12:56.992Z,85.53
2022-08-09T05:15:39.107Z,85.10
2022-08-09T05:18:37.955Z,84.83
2022-08-09T05:21:00.006Z,85.15
2022-08-09T05:23:59.720Z,84.88
2022-08-09T05:26:29.708Z,85.16
2022-08-09T05:29:03.908Z,85.23
2022-08-09T05:31:44.490Z,85.18
2022-08-09T05:34:17.470Z,85.11
2022-08-09T05:36:47.144Z,84.66
2022-08-09T05:39:28.854Z,84.92
2022-08-09T05:42:01.773Z,84.99
2022-08-09T05:44:34.970Z,85.05
2022-08-09T05:47:05.697Z,85.03
2022-08-09T05:50:28.049Z,84.68
2022-08-09T05:52:24.741Z,83.86
2022-08-09T05:54:52.955Z,83.45
2022-08-09T05:57:25.158Z,83.05
2022-08-09T06:00:13.191Z,83.07
2022-08-09T06:02:46.404Z,82.69
2022-08-09T06:05:14.970Z,82.73
2022-08-09T06:07:44.238Z,83.16
2022-08-09T06:10:18.057Z,83.19
2022-08-09T06:12:57.816Z,83.04
2022-08-09T06:15:31.323Z,83.36
2022-08-09T06:17:59.837Z,83.14
2022-08-09T06:20:29.222Z,83.28
2022-08-09T06:22:58.420Z,83.29
2022-08-09T06:25:26.443Z,83.36
2022-08-09T06:27:54.493Z,83.07
2022-08-09T06:30:22.302Z,82.81
2022-08-09T06:32:59.556Z,82.85
2022-08-09T06:35:57.201Z,82.31
2022-08-09T06:38:32.212Z,82.15
2022-08-09T06:41:18.357Z,81.37
2022-08-09T06:43:48.374Z,81.84
2022-08-09T06:46:40.324Z,82.11
2022-08-09T06:49:04.734Z,81.93
2022-08-09T06:51:39.065Z,81.90
2022-08-09T06:54:09.274Z,81.99
2022-08-09T06:56:45.614Z,81.68
2022-08-09T07:00:50.100Z,81.04
2022-08-09T07:02:04.487Z,81.38
2022-08-09T07:04:33.356Z,80.47
2022-08-09T07:07:04.969Z,80.50
2022-08-09T07:09:55.923Z,80.48
2022-08-09T07:12:21.099Z,80.31
2022-08-09T07:16:35.130Z,79.84
2022-08-09T07:18:02.017Z,79.35
2022-08-09T07:20:30.478Z,78.93
2022-08-09T07:22:59.494Z,79.31
2022-08-09T07:25:27.749Z,79.23
2022-08-09T07:27:57.093Z,79.20
2022-08-09T07:30:27.112Z,78.99
2022-08-09T07:33:12.374Z,78.30
2022-08-09T07:35:53.975Z,77.85
2022-08-09T07:38:23.478Z,77.42
2022-08-09T07:41:09.952Z,77.49
2022-08-09T07:43:50.018Z,77.13
2022-08-09T07:46:27.918Z,77.16
2022-08-09T07:48:58.892Z,76.86
2022-08-09T07:52:05.484Z,76.89
2022-08-09T07:54:19.177Z,76.36
2022-08-09T07:56:56.239Z,76.60
2022-08-09T07:59:34.357Z,76.16
2022-08-09T08:02:19.433Z,75.97
2022-08-09T08:04:48.914Z,75.95
2022-08-09T08:08:45.215Z,75.89
2022-08-09T08:10:08.640Z,74.82
2022-08-09T08:12:42.561Z,74.47
2022-08-09T08:15:14.202Z,73.97
2022-08-09T08:17:53.600Z,73.56
2022-08-09T08:20:29.381Z,72.83
2022-08-09T08:23:01.299Z,72.92
2022-08-09T08:25:40.341Z,72.50
2022-08-09T08:28:14.896Z,71.92
2022-08-09T08:30:43.984Z,71.76
2022-08-09T08:33:24.291Z,71.22
2022-08-09T08:35:59.114Z,71.07
2022-08-09T08:38:29.790Z,70.24
2022-08-09T08:40:58.470Z,69.13
2022-08-09T08:43:27.975Z,69.23
2022-08-09T08:46:10.084Z,68.67
2022-08-09T08:48:52.029Z,67.60
2022-08-09T08:51:23.191Z,67.33
2022-08-09T08:54:03.810Z,66.36
2022-08-09T08:56:36.496Z,66.27
2022-08-09T08:59:07.814Z,66.29
2022-08-09T09:01:53.104Z,65.32
2022-08-09T09:04:31.120Z,64.71
2022-08-09T09:07:01.889Z,65.23
2022-08-09T09:09:58.497Z,64.08
2022-08-09T09:12:20.857Z,63.89
2022-08-09T09:14:50.312Z,64.26
2022-08-09T09:17:20.047Z,64.02
2022-08-09T09:19:49.187Z,63.33
2022-08-09T09:22:26.909Z,63.06
2022-08-09T09:26:03.358Z,62.69
2022-08-09T09:28:07.011Z,63.30
2022-08-09T09:30:41.843Z,63.18
2022-08-09T09:33:17.040Z,62.51
2022-08-09T09:36:02.071Z,62.86
2022-08-09T09:38:44.869Z,62.80
2022-08-09T09:41:27.694Z,62.50
2022-08-09T09:44:10.833Z,62.36
2022-08-09T09:46:46.167Z,61.95
2022-08-09T09:49:32.109Z,61.59
2022-08-09T09:52:16.259Z,61.63
2022-08-09T09:55:24.391Z,62.06
2022-08-09T09:58:02.443Z,61.49
2022-08-09T10:00:33.717Z,61.17
2022-08-09T10:03:11.512Z,60.87
2022-08-09T10:06:00.898Z,61.05
2022-08-09T10:08:42.357Z,60.98
2022-08-09T10:11:53.984Z,61.04
2022-08-09T10:14:27.257Z,61.19
2022-08-09T10:17:11.242Z,61.34
2022-08-09T10:19:47.282Z,61.28
2022-08-09T10:22:29.300Z,60.92
2022-08-09T10:24:59.553Z,60.41
2022-08-09T10:27:34.772Z,60.26
2022-08-09T10:30:43.934Z,59.48
2022-08-09T10:32:56.650Z,58.26
2022-08-09T10:35:27.724Z,57.25
2022-08-09T10:37:57.423Z,56.78
2022-08-09T10:40:33.386Z,56.50
2022-08-09T10:43:05.638Z,55.91
2022-08-09T10:45:42.390Z,54.97
2022-08-09T10:48:31.133Z,55.02
2022-08-09T10:51:14.754Z,55.82
2022-08-09T10:53:46.846Z,56.04
2022-08-09T10:56:24.691Z,54.86
2022-08-09T10:58:55.879Z,54.92
2022-08-09T11:03:13.092Z,55.47
2022-08-09T11:04:30.777Z,56.10
2022-08-09T11:07:01.136Z,55.86
2022-08-09T11:09:38.841Z,55.91
2022-08-09T11:12:10.177Z,56.06
2022-08-09T11:14:44.052Z,56.03
2022-08-09T11:17:14.951Z,56.03
2022-08-09T11:20:10.560Z,55.94
2022-08-09T11:22:41.603Z,56.17
2022-08-09T11:25:15.459Z,56.42
2022-08-09T11:28:05.274Z,56.23
2022-08-09T11:30:37.592Z,56.89
2022-08-09T11:33:11.098Z,56.87
2022-08-09T11:35:50.404Z,56.94
2022-08-09T11:38:28.632Z,56.98
2022-08-09T11:41:03.816Z,56.73
2022-08-09T11:43:33.691Z,56.68
2022-08-09T11:46:03.105Z,56.54
2022-08-09T11:48:32.730Z,56.70
2022-08-09T11:51:38.019Z,55.68
2022-08-09T11:54:27.990Z,55.57
2022-08-09T11:57:16.435Z,56.05
2022-08-09T11:59:56.206Z,56.29
2022-08-09T12:02:37.381Z,56.52
2022-08-09T12:05:17.469Z,56.77
2022-08-09T12:07:54.617Z,56.41
2022-08-09T12:10:39.310Z,56.47
2022-08-09T12:14:10.365Z,56.39
2022-08-09T12:16:37.657Z,55.92
2022-08-09T12:19:05.779Z,55.81
2022-08-09T12:21:38.591Z,56.20
2022-08-09T12:24:09.062Z,56.39
2022-08-09T12:26:44.842Z,56.59
2022-08-09T12:29:43.912Z,55.83
2022-08-09T12:32:25.219Z,55.51
2022-08-09T12:34:58.452Z,55.46
2022-08-09T12:37:50.681Z,55.75
2022-08-09T12:40:23.150Z,55.94
2022-08-09T12:42:54.214Z,55.12
2022-08-09T12:45:34.983Z,55.42
2022-08-09T12:48:19.841Z,55.35
2022-08-09T12:50:56.711Z,56.12
2022-08-09T12:53:35.173Z,55.38
2022-08-09T12:56:15.071Z,55.22
2022-08-09T12:59:07.967Z,55.07
2022-08-09T13:01:38.175Z,55.13
2022-08-09T13:04:36.134Z,55.49
2022-08-09T13:07:10.434Z,55.57
2022-08-09T13:09:40.995Z,55.96
2022-08-09T13:12:11.795Z,55.96
2022-08-09T13:14:47.410Z,55.94
2022-08-09T13:17:43.843Z,55.51
2022-08-09T13:20:14.428Z,55.34
2022-08-09T13:23:01.177Z,55.56
2022-08-09T13:25:54.660Z,55.76
2022-08-09T13:28:33.680Z,55.65
2022-08-09T13:32:13.600Z,55.45
2022-08-09T13:33:54.427Z,55.19
2022-08-09T13:36:42.152Z,55.25
2022-08-09T13:41:19.401Z,55.00
2022-08-09T13:42:12.300Z,54.85
2022-08-09T13:44:42.882Z,54.25
2022-08-09T13:47:29.337Z,54.36
2022-08-09T13:50:08.643Z,54.64
2022-08-09T13:52:41.798Z,54.54
2022-08-09T13:55:13.434Z,55.09
2022-08-09T13:57:56.300Z,55.51
2022-08-09T14:00:28.323Z,55.49
2022-08-09T14:03:02.789Z,55.43
2022-08-09T14:05:58.352Z,55.43
2022-08-09T14:08:31.531Z,55.58
2022-08-09T14:11:00.450Z,55.56
2022-08-09T14:14:22.279Z,55.51
2022-08-09T14:16:19.127Z,55.71
2022-08-09T14:18:50.144Z,55.80
2022-08-09T14:21:23.161Z,55.51
2022-08-09T14:23:55.249Z,55.41
2022-08-09T14:26:32.846Z,55.91
2022-08-09T14:29:07.595Z,56.76
2022-08-09T14:31:50.246Z,56.73
2022-08-09T14:34:31.778Z,56.01
2022-08-09T14:37:02.041Z,55.76
2022-08-09T14:39:45.776Z,56.01
2022-08-09T14:42:31.083Z,56.14
2022-08-09T14:45:52.012Z,55.58
2022-08-09T14:47:57.534Z,55.35
2022-08-09T14:50:34.569Z,55.62
2022-08-09T14:53:11.379Z,54.78
2022-08-09T14:55:42.301Z,53.70
2022-08-09T14:58:10.956Z,54.33
2022-08-09T15:00:42.442Z,54.26
2022-08-09T15:03:20.079Z,54.65
2022-08-09T15:05:52.593Z,54.22
2022-08-09T15:08:25.375Z,54.55
2022-08-09T15:11:00.854Z,54.80
2022-08-09T15:13:47.992Z,55.78
2022-08-09T15:16:20.820Z,55.72
2022-08-09T15:18:49.787Z,56.11
2022-08-09T15:21:54.799Z,56.77
2022-08-09T15:24:11.546Z,58.17
2022-08-09T15:26:45.980Z,58.46
2022-08-09T15:30:48.302Z,58.45
2022-08-09T15:32:04.604Z,58.66
2022-08-09T15:34:35.446Z,58.56
2022-08-09T15:37:37.857Z,58.87
2022-08-09T15:40:20.073Z,59.10
2022-08-09T15:42:49.895Z,59.45
2022-08-09T15:45:21.839Z,59.85
2022-08-09T15:48:06.572Z,60.51
2022-08-09T15:50:45.260Z,60.66
2022-08-09T15:53:32.694Z,60.91
2022-08-09T15:56:21.491Z,60.75
2022-08-09T15:58:50.571Z,60.82
2022-08-09T16:01:19.522Z,61.11
2022-08-09T16:03:50.113Z,61.46
2022-08-09T16:06:32.361Z,61.68
2022-08-09T16:09:05.911Z,62.04
2022-08-09T16:11:34.610Z,62.08
2022-08-09T16:14:07.012Z,62.39
2022-08-09T16:16:36.974Z,62.50
2022-08-09T16:19:08.709Z,62.76
2022-08-09T16:21:37.699Z,62.48
2022-08-09T16:24:19.927Z,62.92
2022-08-09T16:26:55.033Z,62.90
2022-08-09T16:29:37.740Z,63.34
2022-08-09T16:32:34.463Z,63.35
2022-08-09T16:35:02.514Z,63.84
2022-08-09T16:37:55.257Z,64.11
2022-08-09T16:40:20.750Z,64.13
2022-08-09T16:43:08.036Z,64.39
2022-08-09T16:45:43.771Z,64.73
2022-08-09T16:48:39.387Z,64.46
2022-08-09T16:51:08.523Z,64.30
2022-08-09T16:54:09.066Z,64.33
2022-08-09T16:56:31.601Z,64.48
2022-08-09T16:59:01.628Z,65.15
2022-08-09T17:01:38.854Z,66.18
2022-08-09T17:04:08.436Z,67.04
2022-08-09T17:08:47.003Z,69.16
2022-08-09T17:09:46.195Z,70.83
2022-08-09T17:12:15.700Z,72.37
2022-08-09T17:14:47.740Z,73.48
2022-08-09T17:17:26.903Z,74.87
2022-08-09T17:20:28.480Z,76.29
2022-08-09T17:22:51.737Z,76.69
2022-08-09T17:25:22.034Z,77.51
2022-08-09T17:27:54.434Z,77.98
2022-08-09T17:30:28.336Z,79.11
2022-08-09T17:33:00.644Z,80.26
2022-08-09T17:35:34.693Z,81.08
2022-08-09T17:38:30.608Z,81.59
2022-08-09T17:40:51.039Z,82.26
2022-08-09T17:43:34.454Z,82.89
2022-08-09T17:46:06.676Z,83.16
2022-08-09T17:48:38.611Z,83.35
2022-08-09T17:51:17.660Z,83.16
2022-08-09T17:53:51.858Z,83.25
2022-08-09T17:56:27.285Z,83.84
2022-08-09T17:58:58.227Z,83.84
2022-08-09T18:01:26.227Z,84.05
2022-08-09T18:04:14.049Z,84.17
2022-08-09T18:06:43.124Z,84.59
2022-08-09T18:09:23.255Z,85.13
2022-08-09T18:12:14.788Z,85.27
2022-08-09T18:14:49.681Z,85.14
2022-08-09T18:17:27.559Z,85.52
2022-08-09T18:20:55.623Z,84.76
2022-08-09T18:22:55.419Z,84.56
2022-08-09T18:25:53.238Z,84.83
2022-08-09T18:28:21.628Z,84.83
2022-08-09T18:30:59.345Z,85.26
2022-08-09T18:33:28.305Z,85.75
2022-08-09T18:35:59.057Z,86.17
2022-08-09T18:38:28.359Z,85.86
2022-08-09T18:40:57.842Z,86.11
2022-08-09T18:43:25.876Z,86.41
2022-08-09T18:46:48.423Z,86.37
2022-08-09T18:48:43.091Z,86.22
2022-08-09T18:51:10.887Z,86.04
2022-08-09T18:54:00.727Z,86.14
2022-08-09T18:56:27.069Z,86.00
2022-08-09T18:58:57.081Z,86.57
2022-08-09T19:01:25.888Z,87.03
2022-08-09T19:04:01.858Z,86.60
2022-08-09T19:06:38.936Z,87.01
2022-08-09T19:09:13.546Z,87.10
2022-08-09T19:11:48.470Z,87.33
2022-08-09T19:14:29.100Z,86.98
2022-08-09T19:16:57.482Z,87.02
2022-08-09T19:19:28.316Z,86.75
2022-08-09T19:22:07.893Z,86.77
2022-08-09T19:25:07.401Z,87.43
2022-08-09T19:27:28.413Z,87.30
2022-08-09T19:30:22.962Z,87.28
2022-08-09T19:32:45.575Z,86.96
2022-08-09T19:35:17.417Z,87.15
2022-08-09T19:37:54.208Z,87.54
2022-08-09T19:40:34.461Z,87.45
2022-08-09T19:43:05.362Z,87.96
2022-08-09T19:45:40.310Z,88.06
2022-08-09T19:48:10.868Z,87.64
2022-08-09T19:50:50.248Z,88.08
2022-08-09T19:53:20.788Z,88.40
2022-08-09T19:56:02.026Z,88.57
2022-08-09T19:58:31.467Z,88.78
2022-08-09T20:01:01.580Z,88.57
2022-08-09T20:04:12.330Z,88.82
2022-08-09T20:06:23.924Z,88.99
2022-08-09T20:08:59.480Z,88.42
2022-08-09T20:11:43.236Z,88.22
2022-08-09T20:14:16.703Z,88.68
2022-08-09T20:16:54.603Z,88.93
2022-08-09T20:19:47.491Z,88.83
2022-08-09T20:22:14.495Z,88.55
2022-08-09T20:24:53.392Z,88.73
2022-08-09T20:27:22.175Z,89.00
2022-08-09T20:29:50.135Z,88.97
2022-08-09T20:32:29.908Z,88.44
2022-08-09T20:35:06.386Z,88.33
2022-08-09T20:38:18.624Z,88.40
2022-08-09T20:40:26.913Z,88.17
2022-08-09T20:43:00.063Z,88.48
2022-08-09T20:46:02.029Z,89.10
2022-08-09T20:48:31.090Z,88.85
2022-08-09T20:51:00.998Z,88.80
2022-08-09T20:53:36.519Z,88.90
2022-08-09T20:56:08.748Z,88.88
2022-08-09T20:58:38.037Z,88.85
2022-08-09T21:01:32.974Z,89.14
2022-08-09T21:04:35.611Z,89.00
2022-08-09T21:06:42.848Z,88.88
2022-08-09T21:09:13.543Z,89.19
2022-08-09T21:14:31.103Z,89.62
2022-08-09T21:17:00.624Z,90.10
2022-08-09T21:20:18.109Z,90.35
2022-08-09T21:22:36.174Z,89.65
2022-08-09T21:25:23.083Z,89.56
2022-08-09T21:27:53.441Z,89.63
2022-08-09T21:30:24.042Z,89.73
2022-08-09T21:32:53.209Z,89.83
2022-08-09T21:35:22.021Z,90.43
2022-08-09T21:37:59.821Z,90.32
2022-08-09T21:40:32.593Z,90.33
2022-08-09T21:43:01.114Z,90.03
2022-08-09T21:45:30.491Z,90.10
2022-08-09T21:47:59.143Z,90.28
2022-08-09T21:50:39.018Z,90.51
2022-08-09T21:53:15.652Z,90.14
2022-08-09T21:55:59.072Z,90.13
2022-08-09T21:58:31.431Z,90.40
2022-08-09T22:00:59.422Z,90.28
2022-08-09T22:03:28.428Z,90.40
2022-08-09T22:05:57.855Z,90.73
2022-08-09T22:08:26.151Z,90.94
2022-08-09T22:11:05.269Z,90.78
2022-08-09T22:13:44.062Z,90.97
2022-08-09T22:16:12.154Z,90.85
2022-08-09T22:18:44.085Z,90.75
2022-08-09T22:21:24.720Z,90.48
2022-08-09T22:24:01.279Z,90.88
2022-08-09T22:26:34.906Z,90.81
2022-08-09T22:29:10.024Z,90.99
2022-08-09T22:31:53.155Z,90.58
2022-08-09T22:34:26.831Z,90.05
2022-08-09T22:36:55.552Z,90.21
2022-08-09T22:39:57.936Z,90.10
2022-08-09T22:42:21.465Z,89.75
2022-08-09T22:45:00.128Z,89.46
2022-08-09T22:48:18.730Z,89.62
2022-08-09T22:50:29.971Z,89.60
2022-08-09T22:52:58.861Z,89.29
2022-08-09T22:55:39.590Z,88.74
2022-08-09T22:58:20.283Z,88.50
2022-08-09T23:00:59.517Z,88.28
2022-08-09T23:04:04.732Z,88.43
2022-08-09T23:06:15.519Z,89.38
2022-08-09T23:09:00.759Z,90.02
2022-08-09T23:11:28.738Z,90.44
2022-08-09T23:13:56.636Z,90.59
2022-08-09T23:16:24.484Z,90.46
2022-08-09T23:18:52.287Z,90.14
2022-08-09T23:21:24.487Z,90.30
2022-08-09T23:24:05.006Z,90.32
2022-08-09T23:26:36.028Z,90.20
2022-08-09T23:29:08.088Z,90.19
2022-08-09T23:31:36.114Z,90.31
2022-08-09T23:34:04.339Z,90.63
2022-08-09T23:36:33.190Z,90.91
2022-08-09T23:39:01.386Z,90.62
2022-08-09T23:41:29.919Z,90.80
2022-08-09T23:43:59.006Z,91.10
2022-08-09T23:46:27.723Z,91.24
2022-08-09T23:48:55.804Z,91.34
2022-08-09T23:51:24.211Z,90.73
2022-08-09T23:53:53.980Z,90.74
2022-08-09T23:56:53.692Z,90.47
2022-08-09T23:59:11.639Z,90.92
